Aurora, Kentucky
Current Conditions -  °F | °C
As of 1:15 PM on Friday 31 Oct 2014 (Local Time) from KCEY Reporting Station
Overcast Overcast  
Wind Chill: 40°   Ceiling: 4000
Heat Index: 46°   Visibility: 10mi
Dew Point: 34°   Wind: 16mph
Humidity: 62%   Direction: 340°NNW
Pressure: 30.11"   Gusts: 23mph
Location:  36.7761°N, 88.2528°W
Report Text: KCEY 311815Z AUTO 34014G20KT 10SM SCT031 BKN040 OVC048 08/01 A3011 RMK AO1
Loading
Personal Weather Stations






























Interactive Weather Map
Tropical Storm Tracking
New forecast layout! Learn more

10-Day Weather Forecast

Advertisements
Track Severe Weather on mobile